Time;durP1;ratioP1;P1;durP2;ratioP2;P2;SDS_P1;SDS_P2;PMS_P1;PMS_P2;Temp;Humidity;BMP_temperature;BMP_pressure;BME280_temperature;BME280_humidity;BME280_pressure;Samples;Min_cycle;Max_cycle;Signal;HPM_P1;HPM_P2
2021/06/09 00:01:28;;;;;;;5.65;3.53;;;17.90;84.30;;;;;;5045565;28;20507;-79
2021/06/09 00:03:55;;;;;;;5.22;3.28;;;17.90;85.30;;;;;;5042454;28;20094;-79
2021/06/09 00:06:22;;;;;;;6.28;3.80;;;17.90;85.70;;;;;;5054081;28;20045;-80
2021/06/09 00:08:48;;;;;;;4.32;3.70;;;17.90;85.60;;;;;;5077669;28;20617;-80
2021/06/09 00:11:15;;;;;;;4.38;3.92;;;17.80;85.60;;;;;;5041055;28;20055;-79
2021/06/09 00:13:42;;;;;;;6.38;4.18;;;17.80;85.70;;;;;;5047958;28;20086;-79
2021/06/09 00:16:15;;;;;;;4.82;4.03;;;17.80;85.80;;;;;;5055012;28;20053;-80
2021/06/09 00:18:43;;;;;;;4.72;3.80;;;17.80;86.10;;;;;;5043382;28;20044;-79
2021/06/09 00:21:11;;;;;;;4.43;4.03;;;17.70;86.20;;;;;;5057970;28;20049;-79
2021/06/09 00:23:38;;;;;;;7.43;5.57;;;17.70;86.80;;;;;;5045926;28;20164;-79
2021/06/09 00:26:05;;;;;;;5.45;4.70;;;17.60;87.20;;;;;;5079401;28;20135;-79
2021/06/09 00:28:34;;;;;;;5.43;4.63;;;17.60;87.10;;;;;;5044185;28;20052;-79
2021/06/09 00:31:06;;;;;;;5.18;4.68;;;17.60;87.30;;;;;;5045669;28;20927;-79
2021/06/09 00:33:35;;;;;;;8.68;5.72;;;17.60;87.90;;;;;;5045187;28;20112;-79
2021/06/09 00:36:03;;;;;;;6.97;5.05;;;17.40;88.00;;;;;;5043858;28;20091;-79
2021/06/09 00:38:30;;;;;;;10.70;5.07;;;17.40;88.30;;;;;;5043682;28;20108;-79
2021/06/09 00:40:58;;;;;;;6.60;5.40;;;17.40;88.60;;;;;;5044181;28;20079;-79
2021/06/09 00:43:32;;;;;;;6.30;5.50;;;17.40;88.40;;;;;;5048386;28;20069;-79
2021/06/09 00:46:11;;;;;;;8.38;5.82;;;17.30;89.20;;;;;;5046891;28;20049;-79
2021/06/09 00:48:41;;;;;;;8.20;5.80;;;17.30;89.20;;;;;;5028005;28;20507;-79
2021/06/09 00:51:17;;;;;;;6.95;5.55;;;17.30;89.60;;;;;;5040125;28;20048;-79
2021/06/09 00:53:55;;;;;;;7.47;5.57;;;17.30;89.80;;;;;;5039267;28;20044;-80
2021/06/09 00:56:23;;;;;;;8.20;5.60;;;17.30;90.10;;;;;;5079452;28;20124;-79
2021/06/09 00:58:51;;;;;;;7.03;5.38;;;17.30;90.10;;;;;;5046015;28;20045;-80
2021/06/09 01:01:20;;;;;;;6.53;5.65;;;17.20;90.40;;;;;;5044667;28;20440;-80
2021/06/09 01:03:48;;;;;;;7.38;5.72;;;17.20;90.40;;;;;;5040592;28;20049;-79
2021/06/09 01:06:15;;;;;;;8.93;6.25;;;17.20;90.70;;;;;;5045872;28;22858;-79
2021/06/09 01:08:43;;;;;;;8.50;5.40;;;17.20;90.70;;;;;;5043110;28;20579;-79
2021/06/09 01:11:15;;;;;;;6.25;5.40;;;17.10;91.00;;;;;;5044943;28;20053;-79
2021/06/09 01:13:44;;;;;;;7.43;5.88;;;17.10;90.90;;;;;;5079627;28;20140;-79
2021/06/09 01:16:11;;;;;;;8.10;6.13;;;17.00;91.10;;;;;;5041424;28;20061;-79
2021/06/09 01:18:39;;;;;;;8.52;5.85;;;17.00;91.20;;;;;;5078628;28;20099;-79
2021/06/09 01:21:06;;;;;;;8.85;6.00;;;16.90;91.80;;;;;;5043029;28;20149;-79
2021/06/09 01:23:34;;;;;;;7.82;5.30;;;16.90;92.10;;;;;;5044133;28;20053;-79
2021/06/09 01:26:01;;;;;;;7.32;6.10;;;16.90;91.90;;;;;;5058972;28;20045;-79
2021/06/09 01:28:28;;;;;;;8.73;6.00;;;16.90;92.00;;;;;;5048925;28;20055;-80
2021/06/09 01:30:56;;;;;;;10.23;6.13;;;16.90;92.20;;;;;;5043692;28;20124;-80
2021/06/09 01:33:24;;;;;;;7.50;6.00;;;16.90;92.30;;;;;;5037537;28;20045;-79
2021/06/09 01:35:52;;;;;;;9.07;6.18;;;16.90;92.70;;;;;;5041233;28;20483;-79
2021/06/09 01:38:19;;;;;;;7.65;5.88;;;16.80;92.90;;;;;;5038829;28;20071;-79
2021/06/09 01:40:46;;;;;;;6.97;5.85;;;16.80;93.20;;;;;;5041257;28;20068;-80
2021/06/09 01:43:14;;;;;;;9.02;6.15;;;16.80;93.20;;;;;;5043013;28;20045;-80
2021/06/09 01:45:41;;;;;;;8.68;6.25;;;16.70;93.60;;;;;;5045381;28;20564;-79
2021/06/09 01:48:09;;;;;;;11.95;6.05;;;16.70;93.60;;;;;;5045481;28;20053;-79
2021/06/09 01:50:38;;;;;;;6.80;5.82;;;16.70;93.90;;;;;;5032274;28;20560;-79
2021/06/09 01:53:05;;;;;;;9.20;5.93;;;16.70;94.30;;;;;;5043533;28;20060;-79
2021/06/09 01:55:33;;;;;;;9.30;6.55;;;16.60;94.50;;;;;;5050468;28;20052;-79
2021/06/09 01:58:02;;;;;;;8.60;6.45;;;16.60;94.70;;;;;;5042576;28;20140;-79
2021/06/09 02:00:35;;;;;;;9.93;6.25;;;16.60;94.90;;;;;;5058197;28;20052;-79
2021/06/09 02:03:02;;;;;;;8.93;6.32;;;16.60;95.20;;;;;;5040972;28;20043;-79
2021/06/09 02:05:32;;;;;;;10.15;6.55;;;16.50;95.60;;;;;;5044849;28;20168;-79
2021/06/09 02:08:03;;;;;;;9.25;5.68;;;16.50;95.80;;;;;;5037031;28;20067;-79
2021/06/09 02:10:30;;;;;;;8.35;5.90;;;16.50;96.10;;;;;;5039600;28;20049;-79
2021/06/09 02:12:59;;;;;;;7.68;6.03;;;16.50;96.30;;;;;;5039899;28;20136;-78
2021/06/09 02:15:27;;;;;;;7.63;6.20;;;16.40;96.60;;;;;;5076470;28;20051;-79
2021/06/09 02:17:57;;;;;;;8.13;6.32;;;16.40;96.70;;;;;;5074343;28;20072;-80
2021/06/09 02:20:28;;;;;;;8.98;6.25;;;16.30;96.80;;;;;;5040131;28;20085;-79
2021/06/09 02:22:55;;;;;;;7.93;6.45;;;16.30;97.00;;;;;;5075835;28;20049;-80
2021/06/09 02:25:23;;;;;;;9.13;6.65;;;16.30;97.50;;;;;;5041442;28;20097;-79
2021/06/09 02:27:50;;;;;;;10.32;6.22;;;16.20;97.60;;;;;;5043275;28;20556;-79
2021/06/09 02:30:18;;;;;;;10.50;6.43;;;16.20;97.90;;;;;;5039637;28;20124;-79
2021/06/09 02:32:46;;;;;;;8.27;6.38;;;16.10;98.30;;;;;;5046691;28;20052;-79
2021/06/09 02:35:18;;;;;;;11.00;6.63;;;16.00;98.80;;;;;;5040932;28;20148;-80
2021/06/09 02:37:53;;;;;;;10.77;7.28;;;15.90;99.20;;;;;;5041912;28;20049;-79
2021/06/09 02:40:21;;;;;;;7.68;6.68;;;15.90;99.50;;;;;;5049773;28;20416;-79
2021/06/09 02:42:49;;;;;;;8.23;6.50;;;15.90;99.80;;;;;;5046955;28;20055;-79
2021/06/09 02:45:20;;;;;;;7.75;6.30;;;15.90;99.90;;;;;;5040741;28;20087;-80
2021/06/09 02:47:50;;;;;;;9.80;6.45;;;15.90;99.90;;;;;;5043011;28;20496;-79
2021/06/09 02:50:19;;;;;;;8.18;6.60;;;15.80;99.90;;;;;;5038302;28;20053;-79
2021/06/09 02:53:15;;;;;;;11.45;7.65;;;15.80;99.90;;;;;;5039703;28;20153;-79
2021/06/09 02:56:11;;;;;;;10.10;7.03;;;15.80;99.90;;;;;;5044285;28;20059;-79
2021/06/09 02:59:19;;;;;;;9.38;7.03;;;15.70;99.90;;;;;;5045006;28;20049;-79
2021/06/09 03:02:07;;;;;;;9.57;7.07;;;15.70;99.90;;;;;;5038266;28;20049;-80
2021/06/09 03:04:50;;;;;;;9.18;7.25;;;15.60;99.90;;;;;;5074822;28;20475;-80
2021/06/09 03:07:21;;;;;;;9.05;7.15;;;15.60;99.90;;;;;;5042676;28;20049;-80
2021/06/09 03:09:53;;;;;;;10.73;6.55;;;15.50;99.90;;;;;;5060053;28;20798;-80
2021/06/09 03:12:34;;;;;;;10.07;7.13;;;15.50;99.90;;;;;;5055587;28;20515;-80
2021/06/09 03:15:10;;;;;;;8.68;7.07;;;15.50;99.90;;;;;;5045681;28;20048;-80
2021/06/09 03:18:04;;;;;;;11.85;7.25;;;15.40;99.90;;;;;;5043103;28;20060;-80
2021/06/09 03:20:52;;;;;;;10.15;6.90;;;15.40;99.90;;;;;;5044878;28;20041;-80
2021/06/09 03:23:38;;;;;;;10.23;7.40;;;15.40;99.90;;;;;;5072777;28;20619;-79
2021/06/09 03:26:26;;;;;;;11.15;7.97;;;15.30;99.90;;;;;;5045102;28;20571;-80
2021/06/09 03:29:22;;;;;;;11.75;7.57;;;15.30;99.90;;;;;;5072877;28;20045;-79
2021/06/09 03:31:57;;;;;;;11.18;7.63;;;15.30;99.90;;;;;;5040521;28;20917;-78
2021/06/09 03:34:36;;;;;;;10.90;7.57;;;15.30;99.90;;;;;;5055814;28;20099;-79
2021/06/09 03:37:04;;;;;;;15.30;8.05;;;15.20;99.90;;;;;;5048480;28;20053;-79
2021/06/09 03:39:33;;;;;;;12.25;8.68;;;15.30;99.90;;;;;;5040025;28;20143;-78
2021/06/09 03:42:01;;;;;;;11.70;8.60;;;15.20;99.90;;;;;;5039468;28;20057;-80
2021/06/09 03:44:33;;;;;;;14.43;7.75;;;15.30;99.90;;;;;;5040546;28;20053;-80
2021/06/09 03:47:01;;;;;;;10.57;8.10;;;15.30;99.90;;;;;;5038034;28;20049;-79
2021/06/09 03:49:29;;;;;;;13.85;8.15;;;15.30;99.90;;;;;;5041602;28;20480;-79
2021/06/09 03:51:56;;;;;;;10.57;7.70;;;15.30;99.90;;;;;;5039490;28;20483;-80
2021/06/09 03:54:23;;;;;;;12.20;7.47;;;15.30;99.90;;;;;;5043343;28;20045;-80
2021/06/09 03:56:53;;;;;;;8.32;6.93;;;15.40;99.90;;;;;;5042576;28;20057;-80
2021/06/09 03:59:21;;;;;;;11.25;7.63;;;15.40;99.90;;;;;;5047225;28;20127;-80
2021/06/09 04:01:50;;;;;;;10.57;7.10;;;15.40;99.90;;;;;;5062549;28;20053;-79
2021/06/09 04:04:20;;;;;;;10.52;7.70;;;15.50;99.90;;;;;;5046030;28;20411;-79
2021/06/09 04:06:50;;;;;;;13.93;8.35;;;15.50;99.90;;;;;;5056604;28;20049;-79
2021/06/09 04:09:20;;;;;;;11.98;7.22;;;15.60;99.90;;;;;;5031306;28;20132;-79
2021/06/09 04:11:59;;;;;;;11.20;7.15;;;15.60;99.90;;;;;;5061892;28;20114;-79
2021/06/09 04:14:33;;;;;;;10.27;7.43;;;15.70;99.90;;;;;;5033256;28;20052;-79
2021/06/09 04:17:04;;;;;;;9.85;7.00;;;15.70;99.90;;;;;;5052182;28;20063;-79
2021/06/09 04:19:35;;;;;;;9.07;6.82;;;15.80;99.90;;;;;;5049497;28;20622;-79
2021/06/09 04:22:03;;;;;;;10.18;7.53;;;15.90;99.90;;;;;;5046244;28;20056;-79
2021/06/09 04:24:33;;;;;;;12.55;7.78;;;16.00;99.90;;;;;;5079129;28;20052;-79
2021/06/09 04:27:06;;;;;;;10.38;6.93;;;16.00;99.90;;;;;;5040562;28;20125;-79
2021/06/09 04:29:33;;;;;;;13.65;7.43;;;16.10;99.90;;;;;;5049239;28;20065;-79
2021/06/09 04:32:00;;;;;;;12.93;8.20;;;16.20;99.90;;;;;;5063277;28;20052;-79
2021/06/09 04:34:42;;;;;;;11.73;8.30;;;16.30;99.90;;;;;;5045445;28;20151;-79
2021/06/09 04:37:09;;;;;;;10.20;7.43;;;16.50;99.90;;;;;;5049544;28;20055;-79
2021/06/09 04:39:37;;;;;;;12.65;8.82;;;16.50;99.90;;;;;;5050530;28;20051;-79
2021/06/09 04:42:06;;;;;;;13.60;9.73;;;16.70;99.90;;;;;;5052297;28;20048;-79
2021/06/09 04:44:34;;;;;;;18.08;10.50;;;16.80;99.90;;;;;;5035038;28;20575;-79
2021/06/09 04:47:01;;;;;;;24.13;10.50;;;16.80;99.90;;;;;;5064037;28;20053;-79
2021/06/09 04:49:32;;;;;;;16.50;10.85;;;16.90;99.90;;;;;;5043825;28;20083;-79
2021/06/09 04:52:00;;;;;;;19.58;11.15;;;17.00;99.90;;;;;;5044488;28;20041;-79
2021/06/09 04:54:27;;;;;;;14.73;11.18;;;17.10;99.90;;;;;;5043217;28;20039;-80
2021/06/09 04:56:54;;;;;;;16.40;10.35;;;17.20;99.90;;;;;;5040052;28;20071;-79
2021/06/09 04:59:21;;;;;;;18.15;11.25;;;17.30;99.90;;;;;;5043074;28;20105;-79
2021/06/09 05:01:49;;;;;;;16.95;11.23;;;17.30;99.90;;;;;;5047695;28;20051;-79
2021/06/09 05:04:16;;;;;;;17.35;12.68;;;17.40;99.90;;;;;;5040747;28;20041;-80
2021/06/09 05:06:43;;;;;;;22.15;11.93;;;17.50;99.90;;;;;;5062973;28;20036;-81
2021/06/09 05:09:10;;;;;;;17.67;12.02;;;17.60;99.90;;;;;;5047837;28;20733;-79
2021/06/09 05:11:57;;;;;;;16.05;12.55;;;17.70;99.90;;;;;;5043229;28;20048;-79
2021/06/09 05:14:50;;;;;;;17.95;12.70;;;17.80;99.90;;;;;;5077518;28;20052;-79
2021/06/09 05:17:21;;;;;;;16.25;12.07;;;18.00;99.90;;;;;;5050987;28;20973;-79
2021/06/09 05:19:50;;;;;;;21.02;12.88;;;18.00;99.90;;;;;;5052031;28;20064;-79
2021/06/09 05:22:26;;;;;;;19.02;13.80;;;18.10;99.90;;;;;;5043178;28;20112;-78
2021/06/09 05:24:54;;;;;;;23.67;13.95;;;18.20;99.90;;;;;;5046678;28;20073;-79
2021/06/09 05:27:23;;;;;;;16.35;13.07;;;18.40;99.90;;;;;;5035779;28;20069;-78
2021/06/09 05:29:51;;;;;;;21.48;14.07;;;18.40;99.90;;;;;;5074016;28;20049;-77
2021/06/09 05:32:18;;;;;;;20.15;14.05;;;18.50;99.90;;;;;;5044768;28;20050;-79
2021/06/09 05:34:47;;;;;;;21.15;14.48;;;18.50;99.90;;;;;;5029578;28;20131;-80
2021/06/09 05:37:15;;;;;;;21.83;13.50;;;18.50;99.90;;;;;;5078965;28;20068;-79
2021/06/09 05:39:43;;;;;;;21.38;13.55;;;18.50;99.90;;;;;;5044151;28;20050;-78
2021/06/09 05:42:13;;;;;;;24.70;14.05;;;18.60;99.90;;;;;;5043664;28;20087;-78
2021/06/09 05:44:49;;;;;;;26.13;13.20;;;18.60;99.90;;;;;;5039979;28;20052;-78
2021/06/09 05:47:16;;;;;;;18.13;14.07;;;18.70;99.90;;;;;;5077650;28;20045;-80
2021/06/09 05:49:43;;;;;;;19.52;13.93;;;18.80;99.90;;;;;;5043106;28;20056;-78
2021/06/09 05:52:11;;;;;;;23.85;13.98;;;18.90;99.90;;;;;;5046761;28;20514;-78
2021/06/09 05:54:41;;;;;;;21.05;13.82;;;18.90;99.90;;;;;;5046970;28;20045;-80
2021/06/09 05:57:10;;;;;;;17.05;12.82;;;19.00;99.90;;;;;;5044830;28;20476;-80
2021/06/09 05:59:40;;;;;;;20.70;14.05;;;19.20;99.90;;;;;;5051751;28;20037;-81
2021/06/09 06:02:07;;;;;;;18.02;14.32;;;19.40;99.90;;;;;;5046393;28;20049;-79
2021/06/09 06:04:35;;;;;;;19.95;15.13;;;19.50;99.90;;;;;;5058392;28;20041;-79
2021/06/09 06:07:05;;;;;;;19.08;14.70;;;19.60;99.90;;;;;;5044041;28;20061;-79
2021/06/09 06:09:32;;;;;;;20.65;14.32;;;19.70;99.90;;;;;;5050710;28;20576;-79
2021/06/09 06:11:59;;;;;;;19.90;14.57;;;19.70;99.90;;;;;;5046115;28;20052;-78
2021/06/09 06:14:26;;;;;;;22.58;14.68;;;19.80;99.90;;;;;;5043139;28;20605;-78
2021/06/09 06:16:55;;;;;;;23.20;14.73;;;19.90;99.90;;;;;;5046227;28;20540;-78
2021/06/09 06:19:22;;;;;;;19.65;15.38;;;20.00;99.90;;;;;;5045751;28;20057;-79
2021/06/09 06:21:49;;;;;;;21.60;15.75;;;20.10;99.90;;;;;;5059967;28;20496;-79
2021/06/09 06:24:17;;;;;;;18.58;14.68;;;20.20;99.90;;;;;;5032551;28;20048;-78
2021/06/09 06:26:49;;;;;;;20.23;14.55;;;20.30;99.90;;;;;;5034477;28;20049;-79
2021/06/09 06:29:17;;;;;;;20.40;14.73;;;20.40;99.90;;;;;;5050891;28;20064;-78
2021/06/09 06:31:46;;;;;;;22.23;15.52;;;20.60;99.90;;;;;;5076523;28;20040;-79
2021/06/09 06:34:17;;;;;;;22.70;15.38;;;20.70;99.90;;;;;;5041146;28;20053;-80
2021/06/09 06:36:48;;;;;;;21.60;15.77;;;20.80;99.70;;;;;;5050799;28;20067;-79
2021/06/09 06:39:15;;;;;;;19.00;14.77;;;21.00;99.20;;;;;;5055757;28;20108;-79
2021/06/09 06:41:42;;;;;;;21.98;16.15;;;21.10;98.60;;;;;;5077694;28;20040;-79
2021/06/09 06:44:11;;;;;;;23.10;15.57;;;21.20;99.20;;;;;;5041494;28;20048;-79
2021/06/09 06:46:38;;;;;;;22.98;15.70;;;21.40;98.00;;;;;;5047457;28;20448;-79
2021/06/09 06:49:06;;;;;;;22.42;16.15;;;21.50;98.60;;;;;;5043805;28;20092;-79
2021/06/09 06:51:33;;;;;;;23.67;16.27;;;21.60;98.30;;;;;;5041952;28;20048;-79
2021/06/09 06:54:01;;;;;;;17.92;14.18;;;21.80;98.50;;;;;;5043081;28;20048;-78
2021/06/09 06:56:29;;;;;;;21.42;15.55;;;22.00;97.80;;;;;;5049357;28;20055;-79
2021/06/09 06:58:55;;;;;;;24.13;15.60;;;22.10;96.90;;;;;;5044498;28;20435;-79
2021/06/09 07:01:28;;;;;;;20.05;14.98;;;22.10;96.40;;;;;;5043077;28;20053;-79
2021/06/09 07:03:56;;;;;;;25.40;14.73;;;22.20;97.30;;;;;;5048605;28;20131;-79
2021/06/09 07:06:22;;;;;;;21.25;15.07;;;22.20;97.80;;;;;;5043647;28;21017;-78
2021/06/09 07:08:49;;;;;;;20.58;16.08;;;22.30;96.90;;;;;;5042370;28;20056;-79
2021/06/09 07:11:21;;;;;;;22.75;15.70;;;22.40;96.40;;;;;;5043000;28;20057;-79
2021/06/09 07:13:49;;;;;;;22.30;15.48;;;22.50;96.40;;;;;;5046177;28;20048;-79
2021/06/09 07:16:21;;;;;;;20.92;15.57;;;22.50;96.80;;;;;;5056669;28;20051;-79
2021/06/09 07:18:49;;;;;;;20.92;14.82;;;22.70;96.90;;;;;;5053269;28;20053;-78
2021/06/09 07:21:21;;;;;;;16.48;14.05;;;22.80;96.70;;;;;;5044485;28;20052;-79
2021/06/09 07:23:50;;;;;;;22.98;15.90;;;22.90;95.80;;;;;;5046542;28;20053;-79
2021/06/09 07:26:18;;;;;;;20.80;14.82;;;23.00;96.40;;;;;;5060756;28;20098;-79
2021/06/09 07:28:51;;;;;;;19.90;14.52;;;23.00;95.90;;;;;;5043343;28;20136;-79
2021/06/09 07:31:26;;;;;;;19.88;15.95;;;23.30;96.40;;;;;;5029668;28;20868;-79
2021/06/09 07:33:54;;;;;;;21.00;14.02;;;23.40;95.50;;;;;;5044688;28;20072;-81
2021/06/09 07:36:24;;;;;;;18.02;15.27;;;23.50;94.80;;;;;;5040836;28;20128;-79
2021/06/09 07:38:56;;;;;;;16.98;14.68;;;23.70;94.30;;;;;;5044624;28;20053;-79
2021/06/09 07:41:28;;;;;;;20.45;16.52;;;23.70;94.00;;;;;;5040922;28;20055;-78
2021/06/09 07:43:57;;;;;;;19.98;15.68;;;23.80;93.70;;;;;;5027168;28;20056;-79
2021/06/09 07:46:28;;;;;;;23.02;15.40;;;23.80;92.90;;;;;;5057985;28;20045;-79
2021/06/09 07:48:57;;;;;;;19.67;14.98;;;23.90;93.10;;;;;;5066211;28;20529;-79
2021/06/09 07:51:25;;;;;;;26.80;15.70;;;24.00;93.30;;;;;;5041305;28;20049;-79
2021/06/09 07:53:57;;;;;;;19.13;15.32;;;24.10;92.40;;;;;;5042484;28;20053;-79
2021/06/09 07:56:34;;;;;;;19.38;15.95;;;24.20;92.80;;;;;;5079202;28;20468;-79
2021/06/09 07:59:04;;;;;;;21.45;15.77;;;24.30;92.90;;;;;;5042345;28;20061;-79
2021/06/09 08:01:32;;;;;;;18.23;15.27;;;24.40;92.40;;;;;;5042753;28;20063;-79
2021/06/09 08:04:02;;;;;;;18.70;15.45;;;24.50;91.90;;;;;;5034712;28;20131;-79
2021/06/09 08:06:30;;;;;;;19.45;15.73;;;24.60;92.00;;;;;;5038044;28;20045;-79
2021/06/09 08:08:56;;;;;;;21.80;14.98;;;24.80;91.40;;;;;;5043204;28;20053;-79
2021/06/09 08:11:23;;;;;;;23.33;16.45;;;24.90;91.20;;;;;;5038587;28;20052;-79
2021/06/09 08:13:51;;;;;;;17.33;15.45;;;25.10;91.40;;;;;;5038409;28;20049;-79
2021/06/09 08:16:19;;;;;;;15.98;14.27;;;25.20;90.90;;;;;;5037477;28;20049;-79
2021/06/09 08:18:48;;;;;;;17.30;15.00;;;25.30;91.60;;;;;;5038177;28;20159;-79
2021/06/09 08:21:20;;;;;;;19.20;16.88;;;25.50;90.90;;;;;;5050468;28;20065;-79
2021/06/09 08:23:50;;;;;;;24.38;17.10;;;25.70;90.10;;;;;;5037105;28;20079;-78
2021/06/09 08:26:19;;;;;;;20.20;17.33;;;25.70;89.90;;;;;;5054400;28;20073;-79
2021/06/09 08:28:48;;;;;;;24.23;15.27;;;25.70;87.60;;;;;;5038724;28;20044;-79
2021/06/09 08:31:18;;;;;;;18.15;15.98;;;25.70;88.80;;;;;;5028844;28;20056;-79
2021/06/09 08:33:46;;;;;;;21.08;15.90;;;25.80;90.10;;;;;;5038882;28;20114;-79
2021/06/09 08:36:14;;;;;;;17.30;15.20;;;25.90;87.40;;;;;;5032793;28;20155;-79
2021/06/09 08:38:43;;;;;;;18.67;15.40;;;26.00;86.50;;;;;;5036656;28;20055;-79
2021/06/09 08:41:11;;;;;;;21.45;14.52;;;25.90;86.60;;;;;;5043172;28;20052;-79
2021/06/09 08:43:41;;;;;;;19.95;16.67;;;25.90;88.90;;;;;;5039671;28;20045;-79
2021/06/09 08:46:10;;;;;;;19.95;16.50;;;26.10;87.00;;;;;;5040871;28;20136;-79
2021/06/09 08:48:40;;;;;;;23.00;16.23;;;26.20;85.40;;;;;;5040181;28;20489;-79
2021/06/09 08:51:09;;;;;;;19.52;15.30;;;26.20;85.80;;;;;;5046908;28;20060;-79
2021/06/09 08:53:40;;;;;;;17.20;14.85;;;26.30;87.20;;;;;;5052274;28;20056;-79
2021/06/09 08:56:07;;;;;;;17.00;14.38;;;26.40;86.30;;;;;;5033903;28;20053;-79
2021/06/09 08:58:35;;;;;;;21.35;15.77;;;26.60;87.90;;;;;;5051517;28;20045;-79
2021/06/09 09:01:04;;;;;;;17.02;15.23;;;26.70;84.90;;;;;;5038164;28;20040;-79
2021/06/09 09:03:31;;;;;;;17.52;14.70;;;26.90;83.40;;;;;;5037008;28;20057;-79
2021/06/09 09:05:58;;;;;;;20.55;14.77;;;26.90;82.70;;;;;;5069309;28;20936;-79
2021/06/09 09:08:25;;;;;;;14.88;13.00;;;27.00;83.20;;;;;;5039934;28;20053;-79
2021/06/09 09:10:51;;;;;;;16.02;13.93;;;27.10;84.10;;;;;;5030784;28;20087;-78
2021/06/09 09:13:18;;;;;;;16.77;14.65;;;27.20;83.80;;;;;;5067730;28;20048;-79
2021/06/09 09:15:45;;;;;;;17.95;16.05;;;27.30;80.90;;;;;;5044379;28;20059;-79
2021/06/09 09:18:13;;;;;;;15.93;14.30;;;27.30;79.60;;;;;;5048684;28;20053;-79
2021/06/09 09:20:42;;;;;;;17.02;15.07;;;27.30;80.70;;;;;;5041035;28;22029;-79
2021/06/09 09:23:22;;;;;;;21.08;16.67;;;27.40;83.10;;;;;;5047102;28;20057;-79
2021/06/09 09:25:54;;;;;;;17.23;15.43;;;27.60;79.80;;;;;;5049188;28;20095;-80
2021/06/09 09:28:23;;;;;;;18.27;13.80;;;27.70;80.00;;;;;;5043612;28;20051;-79
2021/06/09 09:30:50;;;;;;;17.75;15.38;;;27.80;80.90;;;;;;5051075;28;20111;-79
2021/06/09 09:33:21;;;;;;;16.50;14.82;;;27.80;78.80;;;;;;5044405;28;20064;-79
2021/06/09 09:35:49;;;;;;;18.05;14.15;;;27.90;75.40;;;;;;5043958;28;20788;-79
2021/06/09 09:38:28;;;;;;;21.13;14.65;;;27.90;77.50;;;;;;5042090;28;20045;-79
2021/06/09 09:41:02;;;;;;;20.00;15.43;;;28.00;75.70;;;;;;5052265;28;20087;-79
2021/06/09 09:43:46;;;;;;;16.38;14.35;;;28.20;75.00;;;;;;5062472;28;20049;-80
2021/06/09 09:46:20;;;;;;;17.42;14.55;;;28.30;74.20;;;;;;5076387;28;20056;-79
2021/06/09 09:49:07;;;;;;;17.88;15.07;;;28.40;76.40;;;;;;5044366;28;20041;-80
2021/06/09 09:51:55;;;;;;;19.83;16.15;;;28.70;74.80;;;;;;5071916;28;20040;-80
2021/06/09 09:54:30;;;;;;;18.38;15.02;;;28.70;71.20;;;;;;5052671;28;20054;-79
2021/06/09 09:57:06;;;;;;;16.88;14.15;;;28.80;70.80;;;;;;5046697;28;20120;-80
2021/06/09 09:59:33;;;;;;;15.85;14.15;;;29.00;71.50;;;;;;5079913;28;20136;-79
2021/06/09 10:02:04;;;;;;;15.18;12.80;;;29.30;71.00;;;;;;5043505;28;20084;-80
2021/06/09 10:04:35;;;;;;;16.60;13.57;;;29.60;69.80;;;;;;5052682;28;20076;-80
2021/06/09 10:07:07;;;;;;;17.23;13.02;;;29.80;71.90;;;;;;5049460;28;20037;-80
2021/06/09 10:09:43;;;;;;;13.93;12.25;;;30.00;69.70;;;;;;5047405;28;20051;-80
2021/06/09 10:12:11;;;;;;;12.38;11.00;;;30.20;68.20;;;;;;5047105;28;20055;-80
2021/06/09 10:14:47;;;;;;;11.32;10.13;;;30.20;67.30;;;;;;5043838;28;20072;-80
2021/06/09 10:17:29;;;;;;;9.95;8.75;;;29.80;63.30;;;;;;5048303;28;20549;-80
2021/06/09 10:20:00;;;;;;;7.15;6.05;;;29.50;67.10;;;;;;5061708;28;20053;-79
2021/06/09 10:22:33;;;;;;;5.85;4.30;;;29.50;66.50;;;;;;5044849;28;20049;-80
2021/06/09 10:25:07;;;;;;;5.57;4.68;;;29.50;61.80;;;;;;5044385;28;20077;-80
2021/06/09 10:27:47;;;;;;;11.70;5.63;;;29.40;63.00;;;;;;5042681;28;20049;-79
2021/06/09 10:30:20;;;;;;;12.38;6.00;;;29.50;65.80;;;;;;5045863;28;20106;-80
2021/06/09 10:32:50;;;;;;;7.57;6.05;;;29.70;63.90;;;;;;5063224;28;20460;-80
2021/06/09 10:35:20;;;;;;;6.32;5.30;;;29.80;64.30;;;;;;5045534;28;20072;-79
2021/06/09 10:37:49;;;;;;;5.55;4.28;;;30.00;64.50;;;;;;5050666;28;20497;-80
2021/06/09 10:40:17;;;;;;;4.15;3.45;;;30.20;62.30;;;;;;5051064;28;20049;-80
2021/06/09 10:42:48;;;;;;;6.97;5.03;;;30.30;59.80;;;;;;5077801;28;20404;-80
2021/06/09 10:45:16;;;;;;;7.20;5.97;;;30.40;58.80;;;;;;5078880;28;20057;-80
2021/06/09 10:47:45;;;;;;;6.13;5.05;;;30.50;60.80;;;;;;5046553;28;20131;-79
2021/06/09 10:50:14;;;;;;;10.50;7.57;;;30.40;61.20;;;;;;5036071;28;20802;-79
2021/06/09 10:52:44;;;;;;;12.45;8.23;;;30.40;61.80;;;;;;5068744;28;20064;-79
2021/06/09 10:55:11;;;;;;;8.38;7.32;;;30.40;60.90;;;;;;5044850;28;20134;-79
2021/06/09 10:57:38;;;;;;;9.95;6.82;;;30.40;59.90;;;;;;5041853;28;20115;-79
2021/06/09 11:00:12;;;;;;;8.77;5.38;;;30.30;62.10;;;;;;5076080;28;20049;-80
2021/06/09 11:02:40;;;;;;;6.70;6.00;;;30.30;63.10;;;;;;5070338;28;20053;-79
2021/06/09 11:05:10;;;;;;;8.80;6.88;;;30.50;60.40;;;;;;5038290;28;20061;-79
2021/06/09 11:07:43;;;;;;;10.75;7.22;;;30.70;60.30;;;;;;5031331;28;20127;-79
2021/06/09 11:10:13;;;;;;;9.60;8.63;;;30.90;62.10;;;;;;5077041;28;20143;-78
2021/06/09 11:12:48;;;;;;;11.57;9.48;;;31.00;59.70;;;;;;5040054;28;20060;-79
2021/06/09 11:15:18;;;;;;;12.30;9.38;;;31.20;61.60;;;;;;5043759;28;20072;-78
2021/06/09 11:17:49;;;;;;;13.13;9.90;;;31.50;61.10;;;;;;5043401;28;20048;-79
2021/06/09 11:20:36;;;;;;;13.73;12.27;;;31.70;60.50;;;;;;5043610;28;20106;-78
2021/06/09 11:23:05;;;;;;;13.00;11.65;;;31.80;58.30;;;;;;5073593;28;20053;-79
2021/06/09 11:25:42;;;;;;;12.98;11.07;;;31.70;59.70;;;;;;5031200;28;20065;-78
2021/06/09 11:28:10;;;;;;;12.55;10.20;;;31.70;60.90;;;;;;5041323;28;20425;-79
2021/06/09 11:30:48;;;;;;;14.52;12.00;;;32.00;62.90;;;;;;5076651;28;20051;-79
2021/06/09 11:33:37;;;;;;;16.52;12.80;;;32.30;61.10;;;;;;5045614;28;20049;-79
2021/06/09 11:36:31;;;;;;;15.95;12.30;;;32.50;58.70;;;;;;5048696;28;20396;-79
2021/06/09 11:39:23;;;;;;;12.77;10.57;;;32.50;57.70;;;;;;5043393;28;20068;-79
2021/06/09 11:41:53;;;;;;;16.05;11.18;;;32.70;57.50;;;;;;5032124;28;20140;-79
2021/06/09 11:44:34;;;;;;;11.85;10.63;;;32.80;56.70;;;;;;5040297;28;20073;-79
2021/06/09 11:47:22;;;;;;;17.25;11.88;;;33.00;59.90;;;;;;5076850;28;20147;-80
2021/06/09 11:49:52;;;;;;;14.10;11.95;;;33.40;56.90;;;;;;5062920;28;20839;-78
2021/06/09 11:52:21;;;;;;;13.98;10.38;;;33.50;55.10;;;;;;5057818;28;20055;-78
2021/06/09 11:55:06;;;;;;;11.82;9.93;;;33.50;55.30;;;;;;5042076;28;20059;-78
2021/06/09 11:57:33;;;;;;;11.68;9.40;;;33.60;53.90;;;;;;5040959;28;20140;-78
2021/06/09 12:00:07;;;;;;;10.18;7.60;;;33.70;55.70;;;;;;5058159;28;25656;-78
2021/06/09 12:02:34;;;;;;;8.73;7.93;;;34.00;54.30;;;;;;5045135;28;20059;-78
2021/06/09 12:05:02;;;;;;;10.20;8.43;;;34.50;55.30;;;;;;5058064;28;20103;-78
2021/06/09 12:07:32;;;;;;;10.55;8.30;;;35.00;51.20;;;;;;5039425;28;20122;-78
2021/06/09 12:10:03;;;;;;;10.80;8.55;;;35.20;53.80;;;;;;5042091;28;20049;-78
2021/06/09 12:12:31;;;;;;;10.68;9.57;;;35.60;50.00;;;;;;5048366;28;20057;-79
2021/06/09 12:15:07;;;;;;;9.95;9.05;;;35.80;49.90;;;;;;5056285;28;20061;-79
2021/06/09 12:17:40;;;;;;;11.75;7.47;;;36.00;49.30;;;;;;5047498;28;20470;-80
2021/06/09 12:20:18;;;;;;;12.38;8.20;;;36.30;49.90;;;;;;5046151;28;20051;-78
2021/06/09 12:22:51;;;;;;;11.73;9.02;;;36.80;48.60;;;;;;5061573;28;20045;-80
2021/06/09 12:25:27;;;;;;;9.10;8.10;;;37.00;47.10;;;;;;5076772;28;20842;-80
2021/06/09 12:28:10;;;;;;;9.13;7.72;;;37.10;45.90;;;;;;5048682;28;20480;-80
2021/06/09 12:30:40;;;;;;;9.98;8.05;;;37.20;47.20;;;;;;5051074;28;20061;-80
2021/06/09 12:33:06;;;;;;;8.88;7.03;;;37.40;46.20;;;;;;5080950;28;20114;-80
2021/06/09 12:35:34;;;;;;;10.23;6.13;;;37.70;44.70;;;;;;5046437;28;20041;-80
2021/06/09 12:38:04;;;;;;;7.13;4.78;;;37.70;46.20;;;;;;5050416;28;20140;-80
2021/06/09 12:40:40;;;;;;;6.40;5.80;;;37.80;46.80;;;;;;5078118;28;20049;-80
2021/06/09 12:43:11;;;;;;;7.43;5.72;;;37.90;44.10;;;;;;5045859;28;20417;-80
2021/06/09 12:45:43;;;;;;;5.00;4.50;;;37.90;44.50;;;;;;5054673;28;20047;-80
2021/06/09 12:48:12;;;;;;;5.38;4.88;;;38.10;47.10;;;;;;5055482;28;20072;-80
2021/06/09 12:50:46;;;;;;;5.10;4.60;;;38.70;46.00;;;;;;5051386;28;20128;-80
2021/06/09 12:53:16;;;;;;;6.03;4.57;;;39.00;42.90;;;;;;5070257;28;20045;-80
2021/06/09 12:55:48;;;;;;;6.18;4.68;;;39.20;44.90;;;;;;5048925;28;20064;-80